createdAt,value
2018-11-13T00:00:20.413Z,18.90
2018-11-13T00:02:22.590Z,20.10
2018-11-13T00:04:24.742Z,18.93
2018-11-13T00:06:30.798Z,19.80
2018-11-13T00:08:32.966Z,19.77
2018-11-13T00:10:35.109Z,18.10
2018-11-13T00:12:37.290Z,19.20
2018-11-13T00:14:39.461Z,20.57
2018-11-13T00:16:41.846Z,20.30
2018-11-13T00:18:44.292Z,20.80
2018-11-13T00:20:46.453Z,19.97
2018-11-13T00:22:48.620Z,19.90
2018-11-13T00:24:50.782Z,19.80
2018-11-13T00:26:52.958Z,19.10
2018-11-13T00:28:55.144Z,20.10
2018-11-13T00:30:57.938Z,19.87
2018-11-13T00:32:59.930Z,20.60
2018-11-13T00:35:02.541Z,21.07
2018-11-13T00:37:05.478Z,21.00
2018-11-13T00:39:08.273Z,20.70
2018-11-13T00:41:10.393Z,22.00
2018-11-13T00:43:12.640Z,21.90
2018-11-13T00:45:14.891Z,24.73
2018-11-13T00:47:17.014Z,22.00
2018-11-13T00:49:19.192Z,21.70
2018-11-13T00:51:21.391Z,22.33
2018-11-13T00:53:23.526Z,21.37
2018-11-13T00:55:25.710Z,23.00
2018-11-13T00:57:28.089Z,23.27
2018-11-13T00:59:30.608Z,23.33
2018-11-13T01:01:32.545Z,22.67
2018-11-13T01:03:34.717Z,22.97
2018-11-13T01:05:36.931Z,25.23
2018-11-13T01:07:39.325Z,23.53
2018-11-13T01:09:41.417Z,25.10
2018-11-13T01:11:43.590Z,26.53
2018-11-13T01:13:45.743Z,26.23
2018-11-13T01:15:47.918Z,25.83
2018-11-13T01:17:50.270Z,28.67
2018-11-13T01:19:52.427Z,24.83
2018-11-13T01:21:54.933Z,25.43
2018-11-13T01:23:57.177Z,27.70
2018-11-13T01:25:59.305Z,28.37
2018-11-13T01:28:01.581Z,26.93
2018-11-13T01:30:04.867Z,27.00
2018-11-13T01:32:07.050Z,26.90
2018-11-13T01:34:09.234Z,26.37
2018-11-13T01:36:11.417Z,24.60
2018-11-13T01:38:13.562Z,28.67
2018-11-13T01:40:16.943Z,28.53
2018-11-13T01:42:19.145Z,26.63
2018-11-13T01:44:21.542Z,26.80
2018-11-13T01:46:23.871Z,26.90
2018-11-13T01:48:26.101Z,26.20
2018-11-13T01:50:28.267Z,28.07
2018-11-13T01:52:30.757Z,26.70
2018-11-13T01:54:32.935Z,27.10
2018-11-13T01:56:35.094Z,26.17
2018-11-13T01:58:37.313Z,28.50
2018-11-13T02:00:39.454Z,28.77
2018-11-13T02:02:41.686Z,27.37
2018-11-13T02:04:43.995Z,30.40
2018-11-13T02:06:46.143Z,28.97
2018-11-13T02:08:48.302Z,29.47
2018-11-13T02:10:50.467Z,28.73
2018-11-13T02:12:52.736Z,29.20
2018-11-13T02:14:54.890Z,28.17
2018-11-13T02:16:57.165Z,29.10
2018-11-13T02:18:59.326Z,29.67
2018-11-13T02:21:01.481Z,28.83
2018-11-13T02:23:03.727Z,30.77
2018-11-13T02:25:06.707Z,29.53
2018-11-13T02:27:08.877Z,29.13
2018-11-13T02:29:11.189Z,29.40
2018-11-13T02:31:13.364Z,30.10
2018-11-13T02:33:15.520Z,30.90
2018-11-13T02:35:18.055Z,32.23
2018-11-13T02:37:20.198Z,30.40
2018-11-13T02:39:22.349Z,32.10
2018-11-13T02:41:24.532Z,31.00
2018-11-13T02:43:26.710Z,31.40
2018-11-13T02:45:28.850Z,31.33
2018-11-13T02:47:31.006Z,33.70
2018-11-13T02:49:33.372Z,33.90
2018-11-13T02:51:36.038Z,34.57
2018-11-13T02:53:38.207Z,34.43
2018-11-13T02:55:40.390Z,35.13
2018-11-13T02:57:43.261Z,32.83
2018-11-13T02:59:45.455Z,33.07
2018-11-13T03:01:47.641Z,35.37
2018-11-13T03:03:49.801Z,33.20
2018-11-13T03:05:51.937Z,33.87
2018-11-13T03:07:54.122Z,34.83
2018-11-13T03:09:56.285Z,32.57
2018-11-13T03:11:58.447Z,34.33
2018-11-13T03:14:00.658Z,33.60
2018-11-13T03:16:02.842Z,37.23
2018-11-13T03:18:05.009Z,36.23
2018-11-13T03:20:08.557Z,35.73
2018-11-13T03:22:11.991Z,36.97
2018-11-13T03:24:14.184Z,35.93
2018-11-13T03:26:16.339Z,38.00
2018-11-13T03:28:18.640Z,41.17
2018-11-13T03:30:22.774Z,36.63
2018-11-13T03:32:24.964Z,36.70
2018-11-13T03:34:27.141Z,37.87
2018-11-13T03:36:29.289Z,36.73
2018-11-13T03:38:37.738Z,35.27
2018-11-13T03:40:40.127Z,38.23
2018-11-13T03:42:42.945Z,37.47
2018-11-13T03:44:45.088Z,37.10
2018-11-13T03:46:47.481Z,39.63
2018-11-13T03:48:49.644Z,36.33
2018-11-13T03:50:51.805Z,39.20
2018-11-13T03:52:54.174Z,38.17
2018-11-13T03:54:56.342Z,37.20
2018-11-13T03:56:58.510Z,39.37
2018-11-13T03:59:00.772Z,37.53
2018-11-13T04:01:02.935Z,35.47
2018-11-13T04:03:05.101Z,37.30
2018-11-13T04:05:08.264Z,37.60
2018-11-13T04:07:10.435Z,38.47
2018-11-13T04:09:13.783Z,37.83
2018-11-13T04:11:16.001Z,38.20
2018-11-13T04:13:18.395Z,37.10
2018-11-13T04:15:23.589Z,37.40
2018-11-13T04:17:25.734Z,36.43
2018-11-13T04:19:27.961Z,35.27
2018-11-13T04:21:30.128Z,34.20
2018-11-13T04:23:32.316Z,35.53
2018-11-13T04:25:34.493Z,36.50
2018-11-13T04:27:36.707Z,37.00
2018-11-13T04:29:38.894Z,37.30
2018-11-13T04:31:41.293Z,34.97
2018-11-13T04:33:43.434Z,34.30
2018-11-13T04:35:45.627Z,37.10
2018-11-13T04:37:48.562Z,33.30
2018-11-13T04:39:50.757Z,37.20
2018-11-13T04:41:52.926Z,35.63
2018-11-13T04:43:55.122Z,34.80
2018-11-13T04:45:57.285Z,36.10
2018-11-13T04:47:59.471Z,37.60
2018-11-13T04:50:01.680Z,35.70
2018-11-13T04:52:03.970Z,33.50
2018-11-13T04:54:06.237Z,34.20
2018-11-13T04:56:08.440Z,33.03
2018-11-13T04:58:10.605Z,35.10
2018-11-13T05:00:13.825Z,33.60
2018-11-13T05:02:16.010Z,32.80
2018-11-13T05:04:18.190Z,35.20
2018-11-13T05:06:20.349Z,31.80
2018-11-13T05:08:22.546Z,36.00
2018-11-13T05:10:25.152Z,33.80
2018-11-13T05:12:27.331Z,34.03
2018-11-13T05:14:29.520Z,33.37
2018-11-13T05:16:31.678Z,35.03
2018-11-13T05:18:33.823Z,32.90
2018-11-13T05:20:36.096Z,32.30
2018-11-13T05:22:38.302Z,34.10
2018-11-13T05:24:40.462Z,34.07
2018-11-13T05:26:42.613Z,31.40
2018-11-13T05:28:45.164Z,35.13
2018-11-13T05:30:47.314Z,29.83
2018-11-13T05:32:49.617Z,32.80
2018-11-13T05:34:51.838Z,33.50
2018-11-13T05:36:54.090Z,31.33
2018-11-13T05:38:56.267Z,30.80
2018-11-13T05:40:58.580Z,31.33
2018-11-13T05:43:00.766Z,32.30
2018-11-13T05:45:02.978Z,31.33
2018-11-13T05:47:05.253Z,31.63
2018-11-13T05:49:07.470Z,33.10
2018-11-13T05:51:09.694Z,34.20
2018-11-13T05:53:12.046Z,31.17
2018-11-13T05:55:14.850Z,33.10
2018-11-13T05:57:17.165Z,29.53
2018-11-13T05:59:19.367Z,30.87
2018-11-13T06:01:21.602Z,30.43
2018-11-13T06:03:23.812Z,30.60
2018-11-13T06:05:26.106Z,29.17
2018-11-13T06:07:28.266Z,31.43
2018-11-13T06:09:30.499Z,28.97
2018-11-13T06:11:32.997Z,28.60
2018-11-13T06:13:35.165Z,28.00
2018-11-13T06:15:37.329Z,28.73
2018-11-13T06:17:39.945Z,30.40
2018-11-13T06:19:42.129Z,26.80
2018-11-13T06:21:44.299Z,26.83
2018-11-13T06:23:46.530Z,27.07
2018-11-13T06:25:48.701Z,28.47
2018-11-13T06:27:50.897Z,27.17
2018-11-13T06:29:53.113Z,26.70
2018-11-13T06:31:55.299Z,28.63
2018-11-13T06:33:57.481Z,28.97
2018-11-13T06:35:59.682Z,25.50
2018-11-13T06:38:01.898Z,28.37
2018-11-13T06:40:04.634Z,27.67
2018-11-13T06:42:06.846Z,24.43
2018-11-13T06:44:09.347Z,25.07
2018-11-13T06:46:11.530Z,26.40
2018-11-13T06:48:13.752Z,22.40
2018-11-13T06:50:15.970Z,23.40
2018-11-13T06:52:18.151Z,24.60
2018-11-13T06:54:26.171Z,24.97
2018-11-13T06:56:28.373Z,24.23
2018-11-13T06:58:30.573Z,23.37
2018-11-13T07:00:32.775Z,24.20
2018-11-13T07:02:35.098Z,23.17
2018-11-13T07:04:37.299Z,22.03
2018-11-13T07:06:39.485Z,23.90
2018-11-13T07:08:41.871Z,21.63
2018-11-13T07:10:44.066Z,21.80
2018-11-13T07:12:47.329Z,23.47
2018-11-13T07:15:16.022Z,21.67
2018-11-13T07:17:18.357Z,20.97
2018-11-13T07:19:20.570Z,20.53
2018-11-13T07:21:22.717Z,18.37
2018-11-13T07:23:24.915Z,20.30
2018-11-13T07:25:27.148Z,21.23
2018-11-13T07:27:29.260Z,18.47
2018-11-13T07:29:31.482Z,19.00
2018-11-13T07:31:33.699Z,18.50
2018-11-13T07:33:35.886Z,17.80
2018-11-13T07:35:38.027Z,16.30
2018-11-13T07:37:42.862Z,19.30
2018-11-13T07:39:45.330Z,16.80
2018-11-13T07:41:47.495Z,15.50
2018-11-13T07:43:49.854Z,15.67
2018-11-13T07:45:52.038Z,17.27
2018-11-13T07:47:54.383Z,18.13
2018-11-13T07:49:56.493Z,15.67
2018-11-13T07:51:58.750Z,15.03
2018-11-13T07:54:00.924Z,14.67
2018-11-13T07:56:03.059Z,14.33
2018-11-13T07:58:05.393Z,15.20
2018-11-13T08:00:08.642Z,14.60
2018-11-13T08:02:10.808Z,15.10
2018-11-13T08:04:12.971Z,15.27
2018-11-13T08:06:15.188Z,14.43
2018-11-13T08:08:17.262Z,15.30
2018-11-13T08:10:19.426Z,15.50
2018-11-13T08:12:21.578Z,14.13
2018-11-13T08:14:23.715Z,16.50
2018-11-13T08:16:26.120Z,16.00
2018-11-13T08:18:28.319Z,16.87
2018-11-13T08:20:30.437Z,14.37
2018-11-13T08:22:32.685Z,17.03
2018-11-13T08:24:34.842Z,15.97
2018-11-13T08:26:37.002Z,15.70
2018-11-13T08:28:39.412Z,14.10
2018-11-13T08:30:41.566Z,16.23
2018-11-13T08:32:44.512Z,16.20
2018-11-13T08:34:46.983Z,14.73
2018-11-13T08:36:49.122Z,13.73
2018-11-13T08:38:51.286Z,16.27
2018-11-13T08:40:53.459Z,16.73
2018-11-13T08:42:55.597Z,14.80
2018-11-13T08:44:57.754Z,13.23
2018-11-13T08:47:00.749Z,15.50
2018-11-13T08:49:03.023Z,14.33
2018-11-13T08:51:05.194Z,12.50
2018-11-13T08:53:07.361Z,12.40
2018-11-13T08:55:10.194Z,12.27
2018-11-13T08:57:12.298Z,14.17
2018-11-13T08:59:14.588Z,12.40
2018-11-13T09:01:16.598Z,10.70
2018-11-13T09:03:18.763Z,12.37
2018-11-13T09:05:21.410Z,11.90
2018-11-13T09:07:23.544Z,9.90
2018-11-13T09:09:25.745Z,11.63
2018-11-13T09:11:28.016Z,11.17
2018-11-13T09:13:30.138Z,12.43
2018-11-13T09:15:32.301Z,12.23
2018-11-13T09:17:34.898Z,11.97
2018-11-13T09:19:37.286Z,13.13
2018-11-13T09:21:39.206Z,12.67
2018-11-13T09:23:41.378Z,13.83
2018-11-13T09:25:43.531Z,13.57
2018-11-13T09:27:45.692Z,13.60
2018-11-13T09:29:47.891Z,13.07
2018-11-13T09:31:50.023Z,14.00
2018-11-13T09:33:52.166Z,12.93
2018-11-13T09:35:54.534Z,15.53
2018-11-13T09:37:56.629Z,16.37
2018-11-13T09:39:58.775Z,15.70
2018-11-13T09:42:01.916Z,16.20
2018-11-13T09:44:04.276Z,14.53
2018-11-13T09:46:06.582Z,13.87
2018-11-13T09:48:08.618Z,15.43
2018-11-13T09:50:11.943Z,17.23
2018-11-13T09:52:14.106Z,16.57
2018-11-13T09:54:16.548Z,16.23
2018-11-13T09:56:18.722Z,18.43
2018-11-13T09:58:28.691Z,19.07
2018-11-13T10:00:31.116Z,20.43
2018-11-13T10:02:34.004Z,16.73
2018-11-13T10:04:35.891Z,18.43
2018-11-13T10:06:37.940Z,21.03
2018-11-13T10:08:40.828Z,21.23
2018-11-13T10:10:43.038Z,19.20
2018-11-13T10:12:45.530Z,19.00
2018-11-13T10:14:47.706Z,20.30
2018-11-13T10:16:49.844Z,20.13
2018-11-13T10:18:52.034Z,22.27
2018-11-13T10:20:55.317Z,22.93
2018-11-13T10:22:58.120Z,22.13
2018-11-13T10:25:00.411Z,21.50
2018-11-13T10:27:02.594Z,21.97
2018-11-13T10:29:06.511Z,20.33
2018-11-13T10:31:08.698Z,20.57
2018-11-13T10:33:10.852Z,21.57
2018-11-13T10:35:14.074Z,21.43
2018-11-13T10:37:16.404Z,22.50
2018-11-13T10:39:18.542Z,22.37
2018-11-13T10:41:20.981Z,22.87
2018-11-13T10:43:23.374Z,22.63
2018-11-13T10:45:26.833Z,23.27
2018-11-13T10:47:28.978Z,22.30
2018-11-13T10:49:31.139Z,23.23
2018-11-13T10:51:33.357Z,22.50
2018-11-13T10:53:35.517Z,20.30
2018-11-13T10:55:37.693Z,24.30
2018-11-13T10:57:40.674Z,22.23
2018-11-13T10:59:42.910Z,23.57
2018-11-13T11:01:50.934Z,24.90
2018-11-13T11:04:00.584Z,23.60
2018-11-13T11:06:02.863Z,23.57
2018-11-13T11:08:05.051Z,25.50
2018-11-13T11:10:07.271Z,25.00
2018-11-13T11:12:09.421Z,22.90
2018-11-13T11:14:11.730Z,24.00
2018-11-13T11:16:13.914Z,25.30
2018-11-13T11:18:16.165Z,23.43
2018-11-13T11:20:18.300Z,23.10
2018-11-13T11:22:20.580Z,23.00
2018-11-13T11:24:22.960Z,22.07
2018-11-13T11:26:25.334Z,21.47
2018-11-13T11:28:27.522Z,22.93
2018-11-13T11:30:29.734Z,21.80
2018-11-13T11:32:31.991Z,21.80
2018-11-13T11:34:34.192Z,18.90
2018-11-13T11:36:36.403Z,20.60
2018-11-13T11:38:38.686Z,21.70
2018-11-13T11:40:40.850Z,21.40
2018-11-13T11:42:43.057Z,19.27
2018-11-13T11:44:48.741Z,19.33
2018-11-13T11:46:50.945Z,20.03
2018-11-13T11:48:53.167Z,21.50
2018-11-13T11:50:55.572Z,20.43
2018-11-13T11:52:57.771Z,21.73
2018-11-13T11:54:59.981Z,21.77
2018-11-13T11:57:02.201Z,19.40
2018-11-13T11:59:04.415Z,21.10
2018-11-13T12:01:06.649Z,20.60
2018-11-13T12:03:08.854Z,18.23
2018-11-13T12:05:11.050Z,16.63
2018-11-13T12:07:13.240Z,17.53
2018-11-13T12:09:15.443Z,20.43
2018-11-13T12:11:17.844Z,19.20
2018-11-13T12:13:20.077Z,18.00
2018-11-13T12:15:23.569Z,18.50
2018-11-13T12:17:25.766Z,17.23
2018-11-13T12:19:28.099Z,18.30
2018-11-13T12:21:30.510Z,20.17
2018-11-13T12:23:32.722Z,18.00
2018-11-13T12:25:34.947Z,17.80
2018-11-13T12:27:37.180Z,18.07
2018-11-13T12:29:39.870Z,18.27
2018-11-13T12:31:42.110Z,15.90
2018-11-13T12:33:44.327Z,16.67
2018-11-13T12:35:46.534Z,17.97
2018-11-13T12:37:48.730Z,17.03
2018-11-13T12:39:51.098Z,15.67
2018-11-13T12:41:53.306Z,16.70
2018-11-13T12:43:55.542Z,17.17
2018-11-13T12:45:58.099Z,16.60
2018-11-13T12:48:00.301Z,16.27
2018-11-13T12:50:02.621Z,15.83
2018-11-13T12:52:20.734Z,15.60
2018-11-13T12:54:22.918Z,15.10
2018-11-13T12:56:25.280Z,16.50
2018-11-13T12:58:28.301Z,15.70
2018-11-13T13:00:30.493Z,15.77
2018-11-13T13:02:32.702Z,15.40
2018-11-13T13:04:35.075Z,16.70
2018-11-13T13:06:37.290Z,16.13
2018-11-13T13:08:39.483Z,14.90
2018-11-13T13:10:41.847Z,16.20
2018-11-13T13:12:44.107Z,16.67
2018-11-13T13:14:46.354Z,17.73
2018-11-13T13:16:48.561Z,17.60
2018-11-13T13:18:50.778Z,19.33
2018-11-13T13:20:53.039Z,19.30
2018-11-13T13:22:55.308Z,21.30
2018-11-13T13:24:57.528Z,21.47
2018-11-13T13:26:59.754Z,20.63
2018-11-13T13:29:02.006Z,21.17
2018-11-13T13:31:04.420Z,17.70
2018-11-13T13:33:06.615Z,16.90
2018-11-13T13:35:14.957Z,15.20
2018-11-13T13:37:17.221Z,18.27
2018-11-13T13:39:19.443Z,18.60
2018-11-13T13:41:21.689Z,19.30
2018-11-13T13:43:24.659Z,18.37
2018-11-13T13:45:27.346Z,16.43
2018-11-13T13:47:29.854Z,13.00
2018-11-13T13:49:32.098Z,13.50
2018-11-13T13:51:34.350Z,10.80
2018-11-13T13:53:36.852Z,11.20
2018-11-13T13:55:39.199Z,10.67
2018-11-13T13:57:41.574Z,10.20
2018-11-13T13:59:44.000Z,9.33
2018-11-13T14:01:46.162Z,9.53
2018-11-13T14:03:48.391Z,9.40
2018-11-13T14:05:51.113Z,8.00
2018-11-13T14:07:53.450Z,7.20
2018-11-13T14:09:55.683Z,6.90
2018-11-13T14:11:57.934Z,7.03
2018-11-13T14:14:00.122Z,7.10
2018-11-13T14:16:02.578Z,7.50
2018-11-13T14:18:04.794Z,7.60
2018-11-13T14:20:10.139Z,9.17
2018-11-13T14:22:12.350Z,8.43
2018-11-13T14:24:14.567Z,9.73
2018-11-13T14:26:16.792Z,9.83
2018-11-13T14:28:19.329Z,10.97
2018-11-13T14:30:22.944Z,11.93
2018-11-13T14:32:25.225Z,10.93
2018-11-13T14:34:27.433Z,11.50
2018-11-13T14:36:29.664Z,10.83
2018-11-13T14:38:31.914Z,11.50
2018-11-13T14:40:44.934Z,11.73
2018-11-13T14:42:47.800Z,14.57
2018-11-13T14:44:50.160Z,12.60
2018-11-13T14:46:52.411Z,13.37
2018-11-13T14:48:54.643Z,11.70
2018-11-13T14:50:56.894Z,12.20
2018-11-13T14:52:59.344Z,12.03
2018-11-13T14:55:01.509Z,11.63
2018-11-13T14:57:03.788Z,13.00
2018-11-13T14:59:06.326Z,12.53
2018-11-13T15:01:08.572Z,12.00
2018-11-13T15:03:13.226Z,11.50
2018-11-13T15:05:17.928Z,12.10
2018-11-13T15:07:20.210Z,11.70
2018-11-13T15:09:22.458Z,12.63
2018-11-13T15:11:24.879Z,12.20
2018-11-13T15:13:27.280Z,12.50
2018-11-13T15:15:29.519Z,12.50
2018-11-13T15:17:32.041Z,12.57
2018-11-13T15:19:34.254Z,13.20
2018-11-13T15:21:36.683Z,12.93
2018-11-13T15:23:38.749Z,11.83
2018-11-13T15:25:41.160Z,12.70
2018-11-13T15:27:44.265Z,12.70
2018-11-13T15:29:46.484Z,12.40
2018-11-13T15:31:48.755Z,12.47
2018-11-13T15:33:51.085Z,13.13
2018-11-13T15:35:53.576Z,12.30
2018-11-13T15:37:55.771Z,12.47
2018-11-13T15:39:57.982Z,12.67
2018-11-13T15:42:00.351Z,12.90
2018-11-13T15:44:02.599Z,12.20
2018-11-13T15:46:04.878Z,12.13
2018-11-13T15:48:09.095Z,13.57
2018-11-13T15:50:14.256Z,12.70
2018-11-13T15:52:16.619Z,13.50
2018-11-13T15:54:18.727Z,12.20
2018-11-13T15:56:20.957Z,13.10
2018-11-13T15:58:23.203Z,11.80
2018-11-13T16:00:30.254Z,11.23
2018-11-13T16:02:32.464Z,12.60
2018-11-13T16:04:34.662Z,12.40
2018-11-13T16:06:37.092Z,11.73
2018-11-13T16:08:39.111Z,11.00
2018-11-13T16:10:41.399Z,11.30
2018-11-13T16:12:43.786Z,12.50
2018-11-13T16:14:46.537Z,12.10
2018-11-13T16:16:48.750Z,12.00
2018-11-13T16:18:50.973Z,12.37
2018-11-13T16:20:53.255Z,11.43
2018-11-13T16:22:55.512Z,10.83
2018-11-13T16:24:57.770Z,10.70
2018-11-13T16:26:59.930Z,10.40
2018-11-13T16:29:02.181Z,10.80
2018-11-13T16:31:04.850Z,10.03
2018-11-13T16:33:07.298Z,9.80
2018-11-13T16:35:10.845Z,10.17
2018-11-13T16:37:13.667Z,9.63
2018-11-13T16:39:15.838Z,9.73
2018-11-13T16:41:18.137Z,9.73
2018-11-13T16:43:20.601Z,9.50
2018-11-13T16:45:23.588Z,9.03
2018-11-13T16:47:25.838Z,9.63
2018-11-13T16:49:28.040Z,9.70
2018-11-13T16:51:30.267Z,9.23
2018-11-13T16:53:37.084Z,9.97
2018-11-13T16:55:44.946Z,10.53
2018-11-13T16:57:47.258Z,10.33
2018-11-13T16:59:49.510Z,10.13
2018-11-13T17:01:51.643Z,11.77
2018-11-13T17:03:54.078Z,11.53
2018-11-13T17:05:56.279Z,14.27
2018-11-13T17:07:58.391Z,11.37
2018-11-13T17:10:00.537Z,12.47
2018-11-13T17:12:04.165Z,12.83
2018-11-13T17:14:06.345Z,12.60
2018-11-13T17:16:08.621Z,10.20
2018-11-13T17:18:10.833Z,11.07
2018-11-13T17:20:13.458Z,9.13
2018-11-13T17:22:15.592Z,10.50
2018-11-13T17:24:17.814Z,8.60
2018-11-13T17:26:20.006Z,9.40
2018-11-13T17:28:22.413Z,9.20
2018-11-13T17:30:26.118Z,9.90
2018-11-13T17:32:31.561Z,8.70
2018-11-13T17:34:33.767Z,8.60
2018-11-13T17:36:36.048Z,7.20
2018-11-13T17:38:38.261Z,8.77
2018-11-13T17:40:40.546Z,9.00
2018-11-13T17:42:43.317Z,9.00
2018-11-13T17:44:45.563Z,7.30
2018-11-13T17:46:47.753Z,7.40
2018-11-13T17:48:50.028Z,7.07
2018-11-13T17:50:52.213Z,6.60
2018-11-13T17:52:54.433Z,7.17
2018-11-13T17:54:56.609Z,7.90
2018-11-13T17:56:59.012Z,8.40
2018-11-13T17:59:01.242Z,6.67
2018-11-13T18:01:03.534Z,7.53
2018-11-13T18:03:06.250Z,6.80
2018-11-13T18:05:08.813Z,6.90
2018-11-13T18:07:17.007Z,7.37
2018-11-13T18:09:19.270Z,7.33
2018-11-13T18:11:21.542Z,7.17
2018-11-13T18:13:23.746Z,6.97
2018-11-13T18:15:27.060Z,8.03
2018-11-13T18:17:29.299Z,7.03
2018-11-13T18:19:31.489Z,6.80
2018-11-13T18:21:34.022Z,6.70
2018-11-13T18:23:36.323Z,8.03
2018-11-13T18:25:39.065Z,6.87
2018-11-13T18:27:42.943Z,6.80
2018-11-13T18:29:45.206Z,6.50
2018-11-13T18:31:47.468Z,7.03
2018-11-13T18:33:50.238Z,7.30
2018-11-13T18:35:52.488Z,6.80
2018-11-13T18:37:55.741Z,6.87
2018-11-13T18:39:58.203Z,6.70
2018-11-13T18:42:00.411Z,7.50
2018-11-13T18:44:02.668Z,6.50
2018-11-13T18:46:05.195Z,6.97
2018-11-13T18:48:07.596Z,6.90
2018-11-13T18:50:15.382Z,6.90
2018-11-13T18:52:24.706Z,6.70
2018-11-13T18:54:27.230Z,6.23
2018-11-13T18:56:31.157Z,6.47
2018-11-13T18:58:34.489Z,5.23
2018-11-13T19:00:38.188Z,5.50
2018-11-13T19:02:40.710Z,5.37
2018-11-13T19:04:42.952Z,5.17
2018-11-13T19:06:45.332Z,4.93
2018-11-13T19:08:47.603Z,4.30
2018-11-13T19:10:50.239Z,5.43
2018-11-13T19:12:52.883Z,4.30
2018-11-13T19:14:55.207Z,4.70
2018-11-13T19:16:57.589Z,4.80
2018-11-13T19:18:59.770Z,4.10
2018-11-13T19:21:01.995Z,4.70
2018-11-13T19:23:04.662Z,4.30
2018-11-13T19:25:09.067Z,5.43
2018-11-13T19:27:11.296Z,6.87
2018-11-13T19:29:13.543Z,5.37
2018-11-13T19:31:15.787Z,4.53
2018-11-13T19:33:18.040Z,4.50
2018-11-13T19:35:20.846Z,4.30
2018-11-13T19:37:23.098Z,5.00
2018-11-13T19:39:25.326Z,4.67
2018-11-13T19:41:27.827Z,5.50
2018-11-13T19:43:29.792Z,5.00
2018-11-13T19:45:32.097Z,4.30
2018-11-13T19:47:34.356Z,4.70
2018-11-13T19:49:36.686Z,5.10
2018-11-13T19:51:39.406Z,5.00
2018-11-13T19:53:41.532Z,5.43
2018-11-13T19:55:43.850Z,4.30
2018-11-13T19:57:46.834Z,5.20
2018-11-13T19:59:48.959Z,4.80
2018-11-13T20:01:51.151Z,4.50
2018-11-13T20:03:53.373Z,4.63
2018-11-13T20:05:55.624Z,5.00
2018-11-13T20:07:57.872Z,4.77
2018-11-13T20:10:00.190Z,7.00
2018-11-13T20:12:03.084Z,5.10
2018-11-13T20:14:05.342Z,5.13
2018-11-13T20:16:08.553Z,4.70
2018-11-13T20:18:10.771Z,4.77
2018-11-13T20:20:14.736Z,4.63
2018-11-13T20:22:17.036Z,4.30
2018-11-13T20:24:19.517Z,5.50
2018-11-13T20:26:21.766Z,4.80
2018-11-13T20:28:24.034Z,4.00
2018-11-13T20:30:28.539Z,4.40
2018-11-13T20:32:30.723Z,4.70
2018-11-13T20:34:34.448Z,4.97
2018-11-13T20:36:36.726Z,4.17
2018-11-13T20:38:39.002Z,5.00
2018-11-13T20:40:41.282Z,6.17
2018-11-13T20:42:44.614Z,4.47
2018-11-13T20:44:46.926Z,4.93
2018-11-13T20:46:49.124Z,4.70
2018-11-13T20:48:51.418Z,3.80
2018-11-13T20:50:53.698Z,4.90
2018-11-13T20:52:55.933Z,4.40
2018-11-13T20:54:59.236Z,4.13
2018-11-13T20:57:02.329Z,4.80
2018-11-13T20:59:04.618Z,4.30
2018-11-13T21:01:06.887Z,3.87
2018-11-13T21:03:09.111Z,4.03
2018-11-13T21:05:11.406Z,4.70
2018-11-13T21:07:14.003Z,3.90
2018-11-13T21:09:16.256Z,4.60
2018-11-13T21:11:18.531Z,4.50
2018-11-13T21:13:20.783Z,4.87
2018-11-13T21:15:23.261Z,4.10
2018-11-13T21:17:25.712Z,4.00
2018-11-13T21:19:27.692Z,4.20
2018-11-13T21:21:30.075Z,3.80
2018-11-13T21:23:32.362Z,4.30
2018-11-13T21:25:34.581Z,4.00
2018-11-13T21:27:36.832Z,5.17
2018-11-13T21:29:39.044Z,4.50
2018-11-13T21:31:41.287Z,4.60
2018-11-13T21:33:43.824Z,3.93
2018-11-13T21:35:46.068Z,4.70
2018-11-13T21:37:49.567Z,4.20
2018-11-13T21:39:51.775Z,5.20
2018-11-13T21:41:54.035Z,5.37
2018-11-13T21:43:57.624Z,4.60
2018-11-13T21:46:00.381Z,4.20
2018-11-13T21:48:02.735Z,5.03
2018-11-13T21:50:06.386Z,5.10
2018-11-13T21:52:08.855Z,3.80
2018-11-13T21:54:11.347Z,3.83
2018-11-13T21:56:13.788Z,4.17
2018-11-13T21:58:16.076Z,4.57
2018-11-13T22:00:20.612Z,4.90
2018-11-13T22:02:22.840Z,4.30
2018-11-13T22:04:25.158Z,4.30
2018-11-13T22:06:27.366Z,4.00
2018-11-13T22:08:29.618Z,4.40
2018-11-13T22:10:32.541Z,4.67
2018-11-13T22:12:34.792Z,4.00
2018-11-13T22:14:36.988Z,4.30
2018-11-13T22:16:39.327Z,4.80
2018-11-13T22:18:41.499Z,4.53
2018-11-13T22:20:44.014Z,4.70
2018-11-13T22:22:46.371Z,5.07
2018-11-13T22:24:48.616Z,4.57
2018-11-13T22:26:50.960Z,6.50
2018-11-13T22:28:53.844Z,4.57
2018-11-13T22:30:55.711Z,4.70
2018-11-13T22:32:57.958Z,4.60
2018-11-13T22:35:01.235Z,5.67
2018-11-13T22:37:03.451Z,4.80
2018-11-13T22:39:06.376Z,4.60
2018-11-13T22:41:08.679Z,4.30
2018-11-13T22:43:10.871Z,5.57
2018-11-13T22:45:14.791Z,4.70
2018-11-13T22:47:17.014Z,4.90
2018-11-13T22:49:19.214Z,5.50
2018-11-13T22:51:21.443Z,4.50
2018-11-13T22:53:23.846Z,4.97
2018-11-13T22:55:26.084Z,5.00
2018-11-13T22:57:28.427Z,5.20
2018-11-13T22:59:30.607Z,6.90
2018-11-13T23:01:32.866Z,5.00
2018-11-13T23:03:35.301Z,5.97
2018-11-13T23:05:37.529Z,4.80
2018-11-13T23:07:39.706Z,6.23
2018-11-13T23:09:42.106Z,6.00
2018-11-13T23:11:44.287Z,6.27
2018-11-13T23:13:46.462Z,6.07
2018-11-13T23:15:48.649Z,6.60
2018-11-13T23:17:50.885Z,7.23
2018-11-13T23:19:53.074Z,5.70
2018-11-13T23:21:55.255Z,5.53
2018-11-13T23:23:57.447Z,6.00
2018-11-13T23:25:59.652Z,5.60
2018-11-13T23:28:01.994Z,6.60
2018-11-13T23:30:05.733Z,5.93
2018-11-13T23:32:07.922Z,7.13
2018-11-13T23:34:10.098Z,6.40
2018-11-13T23:36:12.413Z,6.83
2018-11-13T23:38:14.570Z,6.60
2018-11-13T23:40:18.143Z,6.40
2018-11-13T23:42:20.342Z,6.93
2018-11-13T23:44:22.581Z,6.60
2018-11-13T23:46:24.736Z,7.40
2018-11-13T23:48:26.930Z,6.70
2018-11-13T23:50:29.098Z,5.80
2018-11-13T23:52:31.643Z,5.13
2018-11-13T23:54:33.842Z,6.20
2018-11-13T23:56:36.283Z,5.77
2018-11-13T23:58:38.314Z,6.10
